createdAt,value
2023-01-31T00:01:39.956Z,101670.66
2023-01-31T00:04:12.584Z,101662.91
2023-01-31T00:06:45.142Z,101659.03
2023-01-31T00:09:12.927Z,101658.81
2023-01-31T00:11:40.012Z,101658.28
2023-01-31T00:14:08.164Z,101658.22
2023-01-31T00:16:35.367Z,101655.00
2023-01-31T00:19:02.997Z,101663.59
2023-01-31T00:21:31.545Z,101654.50
2023-01-31T00:23:58.980Z,101666.72
2023-01-31T00:26:30.757Z,101662.88
2023-01-31T00:28:59.316Z,101664.81
2023-01-31T00:31:28.044Z,101658.44
2023-01-31T00:33:56.274Z,101656.25
2023-01-31T00:36:27.423Z,101659.91
2023-01-31T00:38:57.565Z,101655.44
2023-01-31T00:41:26.164Z,101658.25
2023-01-31T00:43:53.140Z,101655.31
2023-01-31T00:46:23.905Z,101662.53
2023-01-31T00:48:54.443Z,101659.75
2023-01-31T00:51:22.076Z,101653.03
2023-01-31T00:53:50.236Z,101654.13
2023-01-31T00:56:20.100Z,101646.72
2023-01-31T00:58:46.872Z,101657.56
2023-01-31T01:01:26.205Z,101649.81
2023-01-31T01:03:54.634Z,101651.56
2023-01-31T01:06:21.884Z,101651.31
2023-01-31T01:08:48.986Z,101655.72
2023-01-31T01:11:25.101Z,101656.53
2023-01-31T01:13:52.391Z,101652.66
2023-01-31T01:16:24.337Z,101646.59
2023-01-31T01:18:51.787Z,101651.66
2023-01-31T01:21:24.467Z,101648.09
2023-01-31T01:23:51.897Z,101646.44
2023-01-31T01:26:25.285Z,101652.56
2023-01-31T01:28:53.372Z,101653.41
2023-01-31T01:31:21.048Z,101660.69
2023-01-31T01:33:49.448Z,101658.22
2023-01-31T01:36:22.183Z,101665.19
2023-01-31T01:38:49.289Z,101666.28
2023-01-31T01:41:16.327Z,101672.66
2023-01-31T01:43:42.891Z,101662.16
2023-01-31T01:46:26.737Z,101673.84
2023-01-31T01:48:59.264Z,101664.69
2023-01-31T01:51:27.796Z,101648.63
2023-01-31T01:53:58.665Z,101653.34
2023-01-31T01:56:37.594Z,101640.88
2023-01-31T01:59:16.753Z,101645.84
2023-01-31T02:01:44.525Z,101640.88
2023-01-31T02:04:17.489Z,101648.06
2023-01-31T02:06:45.978Z,101651.47
2023-01-31T02:09:48.957Z,101641.22
2023-01-31T02:12:16.131Z,101636.50
2023-01-31T02:14:44.625Z,101638.13
2023-01-31T02:17:17.502Z,101627.03
2023-01-31T02:20:06.327Z,101629.34
2023-01-31T02:22:53.884Z,101627.63
2023-01-31T02:25:51.468Z,101622.66
2023-01-31T02:28:40.045Z,101614.13
2023-01-31T02:31:55.089Z,101624.91
2023-01-31T02:34:25.011Z,101632.69
2023-01-31T02:37:18.180Z,101624.44
2023-01-31T02:39:59.956Z,101626.06
2023-01-31T02:43:02.734Z,101623.84
2023-01-31T02:45:41.861Z,101633.28
2023-01-31T02:48:30.935Z,101634.75
2023-01-31T02:51:19.110Z,101629.47
2023-01-31T02:54:15.927Z,101621.69
2023-01-31T02:56:45.710Z,101629.53
2023-01-31T02:59:14.407Z,101631.75
2023-01-31T03:01:47.918Z,101631.78
2023-01-31T03:04:15.367Z,101633.41
2023-01-31T03:10:10.157Z,101631.47
2023-01-31T03:12:47.452Z,101620.38
2023-01-31T03:16:01.644Z,101621.78
2023-01-31T03:18:35.039Z,101621.53
2023-01-31T03:21:14.450Z,101621.78
2023-01-31T03:23:45.436Z,101611.56
2023-01-31T03:26:13.017Z,101611.84
2023-01-31T03:28:42.519Z,101604.09
2023-01-31T03:31:38.385Z,101602.44
2023-01-31T03:34:08.551Z,101605.50
2023-01-31T03:37:02.481Z,101605.25
2023-01-31T03:40:05.849Z,101606.06
2023-01-31T03:42:46.729Z,101604.75
2023-01-31T03:45:55.847Z,101604.47
2023-01-31T03:48:26.399Z,101608.13
2023-01-31T03:50:59.467Z,101596.25
2023-01-31T03:53:32.649Z,101595.38
2023-01-31T03:56:13.444Z,101600.38
2023-01-31T03:58:50.862Z,101602.00
2023-01-31T04:01:19.960Z,101603.72
2023-01-31T04:03:59.479Z,101610.38
2023-01-31T04:06:27.469Z,101605.66
2023-01-31T04:08:55.280Z,101613.72
2023-01-31T04:11:26.170Z,101611.50
2023-01-31T04:13:53.022Z,101604.88
2023-01-31T04:16:20.045Z,101604.34
2023-01-31T04:18:46.959Z,101598.25
2023-01-31T04:21:15.331Z,101592.69
2023-01-31T04:23:42.377Z,101596.63
2023-01-31T04:26:09.035Z,101593.84
2023-01-31T04:28:35.668Z,101592.75
2023-01-31T04:31:02.351Z,101600.47
2023-01-31T04:33:28.993Z,101592.19
2023-01-31T04:35:55.692Z,101593.84
2023-01-31T04:38:22.365Z,101587.22
2023-01-31T04:40:49.118Z,101590.56
2023-01-31T04:43:15.768Z,101589.50
2023-01-31T04:45:42.607Z,101589.50
2023-01-31T04:48:09.711Z,101588.41
2023-01-31T04:50:36.987Z,101597.81
2023-01-31T04:53:05.073Z,101593.94
2023-01-31T04:55:31.837Z,101593.38
2023-01-31T04:57:58.546Z,101581.47
2023-01-31T05:00:25.555Z,101590.06
2023-01-31T05:02:53.360Z,101581.22
2023-01-31T05:05:20.926Z,101585.69
2023-01-31T05:07:50.141Z,101585.41
2023-01-31T05:10:18.157Z,101572.91
2023-01-31T05:12:45.236Z,101572.94
2023-01-31T05:15:12.063Z,101564.63
2023-01-31T05:17:39.010Z,101561.34
2023-01-31T05:20:06.644Z,101562.97
2023-01-31T05:22:33.914Z,101560.22
2023-01-31T05:25:00.644Z,101559.09
2023-01-31T05:27:27.468Z,101567.97
2023-01-31T05:29:56.566Z,101560.78
2023-01-31T05:32:23.530Z,101553.31
2023-01-31T05:34:50.169Z,101544.53
2023-01-31T05:37:16.862Z,101543.16
2023-01-31T05:39:43.500Z,101544.53
2023-01-31T05:42:10.261Z,101544.25
2023-01-31T05:44:37.035Z,101535.41
2023-01-31T05:47:03.944Z,101530.97
2023-01-31T05:49:34.545Z,101531.53
2023-01-31T05:52:01.960Z,101524.59
2023-01-31T05:54:32.530Z,101518.50
2023-01-31T05:56:59.357Z,101516.50
2023-01-31T05:59:26.468Z,101514.78
2023-01-31T06:01:54.467Z,101522.66
2023-01-31T06:04:21.363Z,101521.59
2023-01-31T06:06:48.006Z,101522.69
2023-01-31T06:09:14.627Z,101513.34
2023-01-31T06:11:41.288Z,101516.38
2023-01-31T06:14:08.820Z,101509.78
2023-01-31T06:16:35.570Z,101514.00
2023-01-31T06:19:02.444Z,101521.72
2023-01-31T06:21:29.457Z,101519.22
2023-01-31T06:23:56.561Z,101525.56
2023-01-31T06:26:23.885Z,101521.72
2023-01-31T06:28:50.628Z,101513.47
2023-01-31T06:31:18.625Z,101516.53
2023-01-31T06:33:47.791Z,101524.03
2023-01-31T06:36:18.597Z,101521.28
2023-01-31T06:38:49.241Z,101524.03
2023-01-31T06:41:16.345Z,101527.97
2023-01-31T06:43:43.010Z,101527.66
2023-01-31T06:46:09.706Z,101526.31
2023-01-31T06:48:36.490Z,101534.06
2023-01-31T06:51:03.194Z,101529.09
2023-01-31T06:53:30.378Z,101529.66
2023-01-31T06:55:57.266Z,101543.19
2023-01-31T06:58:24.295Z,101541.28
2023-01-31T07:00:50.959Z,101534.84
2023-01-31T07:03:19.334Z,101542.34
2023-01-31T07:05:46.519Z,101553.97
2023-01-31T07:08:14.602Z,101545.69
2023-01-31T07:10:41.515Z,101539.03
2023-01-31T07:13:08.336Z,101536.72
2023-01-31T07:15:34.884Z,101531.19
2023-01-31T07:18:01.680Z,101536.78
2023-01-31T07:20:28.318Z,101543.16
2023-01-31T07:22:58.450Z,101552.25
2023-01-31T07:25:26.232Z,101551.63
2023-01-31T07:27:53.188Z,101550.47
2023-01-31T07:30:19.929Z,101533.25
2023-01-31T07:32:46.636Z,101539.31
2023-01-31T07:35:13.260Z,101541.50
2023-01-31T07:37:40.725Z,101537.00
2023-01-31T07:40:08.194Z,101530.06
2023-01-31T07:42:34.755Z,101552.75
2023-01-31T07:45:13.190Z,101534.72
2023-01-31T07:47:48.565Z,101534.72
2023-01-31T07:50:15.189Z,101526.59
2023-01-31T07:52:41.868Z,101523.38
2023-01-31T07:55:08.906Z,101513.91
2023-01-31T07:57:35.608Z,101535.47
2023-01-31T08:00:02.650Z,101520.97
2023-01-31T08:02:56.965Z,101518.19
2023-01-31T08:05:23.842Z,101524.31
2023-01-31T08:08:10.360Z,101526.53
2023-01-31T08:10:37.651Z,101519.88
2023-01-31T08:13:04.699Z,101521.28
2023-01-31T08:15:31.806Z,101516.19
2023-01-31T08:17:58.806Z,101511.81
2023-01-31T08:20:25.559Z,101520.75
2023-01-31T08:22:52.355Z,101525.16
2023-01-31T08:25:20.712Z,101517.16
2023-01-31T08:27:47.572Z,101510.72
2023-01-31T08:30:14.518Z,101510.13
2023-01-31T08:32:41.251Z,101505.09
2023-01-31T08:35:08.527Z,101496.50
2023-01-31T08:37:35.428Z,101498.97
2023-01-31T08:40:02.313Z,101498.94
2023-01-31T08:42:29.328Z,101502.22
2023-01-31T08:44:56.086Z,101509.13
2023-01-31T08:47:22.837Z,101498.88
2023-01-31T08:49:49.581Z,101496.94
2023-01-31T08:52:16.349Z,101499.91
2023-01-31T08:54:43.071Z,101504.88
2023-01-31T08:57:09.755Z,101507.13
2023-01-31T08:59:36.525Z,101508.78
2023-01-31T09:02:05.769Z,101500.66
2023-01-31T09:04:32.441Z,101503.69
2023-01-31T09:06:59.127Z,101498.72
2023-01-31T09:09:26.179Z,101492.59
2023-01-31T09:12:04.755Z,101488.72
2023-01-31T09:14:31.465Z,101474.19
2023-01-31T09:16:58.171Z,101473.59
2023-01-31T09:19:24.910Z,101491.88
2023-01-31T09:21:51.536Z,101484.16
2023-01-31T09:24:18.149Z,101477.47
2023-01-31T09:26:44.877Z,101487.97
2023-01-31T09:29:11.496Z,101476.88
2023-01-31T09:31:38.668Z,101473.00
2023-01-31T09:34:05.484Z,101463.56
2023-01-31T09:36:32.342Z,101457.41
2023-01-31T09:38:59.518Z,101461.53
2023-01-31T09:41:46.295Z,101474.34
2023-01-31T09:44:12.957Z,101466.25
2023-01-31T09:46:45.218Z,101462.06
2023-01-31T09:49:20.789Z,101457.41
2023-01-31T09:51:53.056Z,101465.19
2023-01-31T09:54:27.029Z,101445.50
2023-01-31T09:57:08.499Z,101447.72
2023-01-31T10:00:08.627Z,101449.63
2023-01-31T10:03:22.818Z,101447.88
2023-01-31T10:05:55.393Z,101458.44
2023-01-31T10:08:46.230Z,101461.75
2023-01-31T10:11:28.320Z,101444.59
2023-01-31T10:14:27.948Z,101441.22
2023-01-31T10:17:12.508Z,101439.03
2023-01-31T10:19:49.547Z,101439.56
2023-01-31T10:22:28.390Z,101440.69
2023-01-31T10:25:00.023Z,101437.91
2023-01-31T10:27:43.879Z,101433.41
2023-01-31T10:30:24.742Z,101425.16
2023-01-31T10:32:57.821Z,101412.66
2023-01-31T10:35:31.910Z,101415.13
2023-01-31T10:38:14.262Z,101398.69
2023-01-31T10:40:45.297Z,101398.50
2023-01-31T10:43:29.243Z,101397.06
2023-01-31T10:46:00.974Z,101393.97
2023-01-31T10:48:29.678Z,101388.16
2023-01-31T10:51:43.996Z,101383.94
2023-01-31T10:54:37.894Z,101379.72
2023-01-31T10:57:04.667Z,101365.03
2023-01-31T10:59:34.995Z,101373.91
2023-01-31T11:02:03.078Z,101367.53
2023-01-31T11:04:38.860Z,101355.81
2023-01-31T11:07:06.452Z,101353.25
2023-01-31T11:09:37.039Z,101345.75
2023-01-31T11:12:06.742Z,101341.53
2023-01-31T11:14:33.729Z,101339.31
2023-01-31T11:17:06.697Z,101342.00
2023-01-31T11:19:38.477Z,101352.00
2023-01-31T11:22:06.638Z,101362.03
2023-01-31T11:24:37.404Z,101354.84
2023-01-31T11:27:07.639Z,101353.63
2023-01-31T11:29:47.445Z,101343.03
2023-01-31T11:32:33.231Z,101338.13
2023-01-31T11:35:05.697Z,101345.63
2023-01-31T11:37:34.847Z,101340.81
2023-01-31T11:40:01.660Z,101344.09
2023-01-31T11:42:28.663Z,101335.47
2023-01-31T11:44:55.848Z,101340.09
2023-01-31T11:47:32.767Z,101339.50
2023-01-31T11:50:01.196Z,101329.59
2023-01-31T11:52:31.363Z,101329.59
2023-01-31T11:55:18.493Z,101325.72
2023-01-31T11:57:45.368Z,101306.28
2023-01-31T12:00:27.859Z,101300.41
2023-01-31T12:03:08.555Z,101294.16
2023-01-31T12:05:42.678Z,101299.41
2023-01-31T12:08:30.346Z,101289.94
2023-01-31T12:10:58.176Z,101313.00
2023-01-31T12:13:25.736Z,101305.47
2023-01-31T12:15:58.154Z,101295.31
2023-01-31T12:18:32.694Z,101295.31
2023-01-31T12:21:15.857Z,101290.88
2023-01-31T12:23:55.612Z,101292.19
2023-01-31T12:26:43.569Z,101284.81
2023-01-31T12:29:16.098Z,101292.03
2023-01-31T12:32:07.020Z,101291.91
2023-01-31T12:34:59.316Z,101296.34
2023-01-31T12:37:39.133Z,101297.47
2023-01-31T12:40:25.188Z,101285.25
2023-01-31T12:43:25.584Z,101289.13
2023-01-31T12:45:55.287Z,101299.63
2023-01-31T12:48:45.378Z,101297.34
2023-01-31T12:51:59.630Z,101296.34
2023-01-31T12:54:29.454Z,101298.59
2023-01-31T12:57:33.350Z,101297.47
2023-01-31T13:00:37.265Z,101301.34
2023-01-31T13:03:41.387Z,101295.31
2023-01-31T13:06:16.685Z,101288.09
2023-01-31T13:09:07.384Z,101290.03
2023-01-31T13:11:45.303Z,101282.53
2023-01-31T13:14:21.604Z,101281.72
2023-01-31T13:16:53.976Z,101282.13
2023-01-31T13:19:36.875Z,101279.88
2023-01-31T13:22:20.130Z,101288.53
2023-01-31T13:24:53.753Z,101284.31
2023-01-31T13:27:30.055Z,101270.41
2023-01-31T13:30:02.060Z,101277.91
2023-01-31T13:32:43.216Z,101280.69
2023-01-31T13:35:26.682Z,101286.47
2023-01-31T13:38:07.390Z,101279.38
2023-01-31T13:40:46.731Z,101274.09
2023-01-31T13:43:14.260Z,101281.53
2023-01-31T13:45:52.829Z,101284.59
2023-01-31T13:48:33.722Z,101279.88
2023-01-31T13:51:07.560Z,101279.25
2023-01-31T13:53:40.393Z,101277.59
2023-01-31T13:56:12.899Z,101277.59
2023-01-31T13:58:40.181Z,101275.34
2023-01-31T14:01:17.914Z,101265.25
2023-01-31T14:04:09.413Z,101282.53
2023-01-31T14:07:02.855Z,101270.59
2023-01-31T14:09:34.147Z,101270.94
2023-01-31T14:12:22.013Z,101273.69
2023-01-31T14:14:57.855Z,101275.16
2023-01-31T14:17:27.065Z,101277.59
2023-01-31T14:19:55.242Z,101282.66
2023-01-31T14:22:23.243Z,101277.91
2023-01-31T14:24:50.100Z,101279.25
2023-01-31T14:27:30.904Z,101279.88
2023-01-31T14:30:06.356Z,101283.16
2023-01-31T14:32:51.818Z,101283.75
2023-01-31T14:35:49.357Z,101277.41
2023-01-31T14:38:40.304Z,101278.22
2023-01-31T14:41:22.149Z,101276.16
2023-01-31T14:44:19.236Z,101272.97
2023-01-31T14:47:05.917Z,101272.16
2023-01-31T14:50:11.576Z,101260.34
2023-01-31T14:53:01.782Z,101264.22
2023-01-31T14:55:42.440Z,101270.50
2023-01-31T14:58:25.792Z,101272.97
2023-01-31T15:01:02.864Z,101277.09
2023-01-31T15:03:35.777Z,101270.38
2023-01-31T15:06:27.347Z,101261.84
2023-01-31T15:09:12.626Z,101262.16
2023-01-31T15:11:42.811Z,101268.28
2023-01-31T15:14:37.927Z,101277.72
2023-01-31T15:17:33.692Z,101292.19
2023-01-31T15:20:18.830Z,101287.34
2023-01-31T15:22:46.903Z,101282.75
2023-01-31T15:25:40.152Z,101314.97
2023-01-31T15:28:10.177Z,101313.13
2023-01-31T15:30:40.539Z,101301.47
2023-01-31T15:33:13.333Z,101310.63
2023-01-31T15:35:54.517Z,101314.84
2023-01-31T15:38:56.973Z,101317.09
2023-01-31T15:41:39.037Z,101313.81
2023-01-31T15:44:31.776Z,101312.75
2023-01-31T15:46:58.518Z,101307.81
2023-01-31T15:49:39.647Z,101306.69
2023-01-31T15:52:22.771Z,101318.91
2023-01-31T15:55:17.277Z,101320.75
2023-01-31T15:57:56.941Z,101311.69
2023-01-31T16:00:34.077Z,101320.34
2023-01-31T16:03:02.461Z,101318.91
2023-01-31T16:05:33.219Z,101326.00
2023-01-31T16:08:01.675Z,101322.03
2023-01-31T16:10:30.437Z,101326.53
2023-01-31T16:13:16.783Z,101317.69
2023-01-31T16:15:44.171Z,101316.03
2023-01-31T16:18:12.448Z,101322.19
2023-01-31T16:20:40.851Z,101327.53
2023-01-31T16:23:31.062Z,101323.63
2023-01-31T16:26:07.555Z,101333.88
2023-01-31T16:28:41.109Z,101343.94
2023-01-31T16:31:14.371Z,101340.72
2023-01-31T16:33:55.031Z,101338.69
2023-01-31T16:36:52.932Z,101342.94
2023-01-31T16:39:40.601Z,101351.34
2023-01-31T16:42:22.295Z,101349.47
2023-01-31T16:44:49.879Z,101356.47
2023-01-31T16:47:44.423Z,101355.63
2023-01-31T16:50:17.052Z,101363.88
2023-01-31T16:52:45.110Z,101368.97
2023-01-31T16:55:17.704Z,101364.97
2023-01-31T16:57:44.908Z,101361.16
2023-01-31T17:00:23.727Z,101363.44
2023-01-31T17:03:01.083Z,101368.97
2023-01-31T17:05:41.366Z,101382.25
2023-01-31T17:08:18.644Z,101374.94
2023-01-31T17:10:49.581Z,101377.50
2023-01-31T17:13:18.770Z,101365.53
2023-01-31T17:15:45.664Z,101361.16
2023-01-31T17:18:12.528Z,101353.88
2023-01-31T17:20:45.260Z,101358.09
2023-01-31T17:23:13.091Z,101341.09
2023-01-31T17:25:40.633Z,101339.13
2023-01-31T17:28:07.476Z,101326.25
2023-01-31T17:30:37.648Z,101346.25
2023-01-31T17:33:04.519Z,101353.38
2023-01-31T17:35:33.755Z,101340.56
2023-01-31T17:38:00.566Z,101333.44
2023-01-31T17:40:27.542Z,101347.31
2023-01-31T17:42:58.636Z,101349.47
2023-01-31T17:45:25.794Z,101355.84
2023-01-31T17:47:52.524Z,101351.88
2023-01-31T17:50:27.484Z,101340.78
2023-01-31T17:52:55.355Z,101352.34
2023-01-31T17:55:24.055Z,101346.78
2023-01-31T17:57:51.641Z,101349.94
2023-01-31T18:00:19.673Z,101328.63
2023-01-31T18:02:46.810Z,101331.13
2023-01-31T18:05:18.688Z,101335.84
2023-01-31T18:07:49.809Z,101329.38
2023-01-31T18:10:16.853Z,101323.41
2023-01-31T18:12:43.486Z,101319.59
2023-01-31T18:15:10.675Z,101318.63
2023-01-31T18:17:37.429Z,101317.94
2023-01-31T18:20:07.413Z,101324.16
2023-01-31T18:22:34.222Z,101320.88
2023-01-31T18:25:00.845Z,101309.19
2023-01-31T18:27:27.456Z,101320.28
2023-01-31T18:29:55.665Z,101326.41
2023-01-31T18:32:22.479Z,101330.63
2023-01-31T18:34:49.546Z,101341.47
2023-01-31T18:37:20.197Z,101327.63
2023-01-31T18:39:51.370Z,101327.16
2023-01-31T18:42:19.772Z,101323.09
2023-01-31T18:44:47.121Z,101320.91
2023-01-31T18:47:15.202Z,101323.50
2023-01-31T18:49:42.661Z,101319.38
2023-01-31T18:52:09.346Z,101314.88
2023-01-31T18:54:37.673Z,101334.78
2023-01-31T18:57:04.719Z,101319.91
2023-01-31T18:59:33.591Z,101335.94
2023-01-31T19:02:00.870Z,101337.03
2023-01-31T19:04:27.570Z,101333.66
2023-01-31T19:06:54.310Z,101355.25
2023-01-31T19:09:22.380Z,101344.06
2023-01-31T19:11:49.385Z,101339.69
2023-01-31T19:14:16.191Z,101335.84
2023-01-31T19:16:44.816Z,101349.03
2023-01-31T19:19:12.177Z,101353.38
2023-01-31T19:21:39.312Z,101356.81
2023-01-31T19:24:10.291Z,101351.88
2023-01-31T19:26:37.339Z,101349.34
2023-01-31T19:29:04.733Z,101350.22
2023-01-31T19:31:33.636Z,101354.66
2023-01-31T19:34:03.454Z,101352.47
2023-01-31T19:36:33.175Z,101366.25
2023-01-31T19:39:02.330Z,101363.19
2023-01-31T19:41:29.152Z,101359.22
2023-01-31T19:43:58.500Z,101358.91
2023-01-31T19:46:27.141Z,101352.84
2023-01-31T19:48:55.810Z,101349.47
2023-01-31T19:51:23.449Z,101351.94
2023-01-31T19:53:50.454Z,101358.31
2023-01-31T19:56:17.405Z,101360.81
2023-01-31T19:58:44.312Z,101356.06
2023-01-31T20:01:18.570Z,101363.25
2023-01-31T20:03:45.934Z,101355.47
2023-01-31T20:06:19.275Z,101357.44
2023-01-31T20:08:50.666Z,101347.16
2023-01-31T20:11:18.124Z,101352.63
2023-01-31T20:13:45.020Z,101358.38
2023-01-31T20:16:13.422Z,101364.16
2023-01-31T20:18:41.086Z,101369.38
2023-01-31T20:21:09.109Z,101370.66
2023-01-31T20:23:35.998Z,101375.22
2023-01-31T20:26:03.563Z,101364.13
2023-01-31T20:28:30.480Z,101360.75
2023-01-31T20:31:04.863Z,101352.31
2023-01-31T20:33:31.700Z,101353.66
2023-01-31T20:35:58.495Z,101351.59
2023-01-31T20:38:25.486Z,101355.34
2023-01-31T20:40:54.124Z,101359.75
2023-01-31T20:43:22.783Z,101352.47
2023-01-31T20:45:49.931Z,101348.94
2023-01-31T20:48:17.208Z,101343.03
2023-01-31T20:50:44.547Z,101336.38
2023-01-31T20:53:20.170Z,101334.72
2023-01-31T20:55:54.540Z,101345.91
2023-01-31T20:58:21.243Z,101350.94
2023-01-31T21:00:48.033Z,101354.00
2023-01-31T21:03:14.819Z,101347.06
2023-01-31T21:05:41.584Z,101351.78
2023-01-31T21:08:08.421Z,101352.88
2023-01-31T21:10:35.263Z,101348.69
2023-01-31T21:13:01.884Z,101349.56
2023-01-31T21:15:29.136Z,101342.91
2023-01-31T21:17:56.210Z,101339.59
2023-01-31T21:20:23.163Z,101343.28
2023-01-31T21:22:50.537Z,101344.03
2023-01-31T21:25:17.487Z,101332.63
2023-01-31T21:27:44.288Z,101327.63
2023-01-31T21:30:11.563Z,101331.53
2023-01-31T21:32:38.164Z,101333.53
2023-01-31T21:35:05.225Z,101337.13
2023-01-31T21:37:31.939Z,101332.09
2023-01-31T21:39:58.633Z,101321.53
2023-01-31T21:42:25.503Z,101322.13
2023-01-31T21:44:52.332Z,101313.50
2023-01-31T21:47:19.997Z,101314.94
2023-01-31T21:49:46.624Z,101311.56
2023-01-31T21:52:13.413Z,101315.44
2023-01-31T21:54:40.195Z,101306.06
2023-01-31T21:57:06.985Z,101304.13
2023-01-31T21:59:33.851Z,101292.31
2023-01-31T22:02:00.627Z,101294.56
2023-01-31T22:04:27.320Z,101286.75
2023-01-31T22:06:55.511Z,101283.56
2023-01-31T22:09:22.258Z,101282.00
2023-01-31T22:11:49.929Z,101284.22
2023-01-31T22:14:16.916Z,101287.00
2023-01-31T22:16:47.045Z,101285.28
2023-01-31T22:19:14.685Z,101277.06
2023-01-31T22:21:42.505Z,101267.69
2023-01-31T22:24:11.518Z,101267.28
2023-01-31T22:26:41.447Z,101263.44
2023-01-31T22:29:10.778Z,101265.25
2023-01-31T22:31:38.191Z,101259.44
2023-01-31T22:34:06.441Z,101255.91
2023-01-31T22:36:36.383Z,101259.19
2023-01-31T22:39:05.698Z,101255.38
2023-01-31T22:41:32.610Z,101250.56
2023-01-31T22:43:59.301Z,101240.50
2023-01-31T22:46:32.096Z,101242.56
2023-01-31T22:48:58.903Z,101243.16
2023-01-31T22:51:27.177Z,101243.16
2023-01-31T22:53:55.890Z,101235.47
2023-01-31T22:56:28.558Z,101246.31
2023-01-31T22:59:00.126Z,101239.53
2023-01-31T23:01:30.056Z,101241.69
2023-01-31T23:03:58.840Z,101245.50
2023-01-31T23:06:32.447Z,101254.06
2023-01-31T23:09:01.942Z,101253.06
2023-01-31T23:11:28.727Z,101242.97
2023-01-31T23:13:57.227Z,101232.41
2023-01-31T23:16:43.795Z,101238.69
2023-01-31T23:19:11.744Z,101242.97
2023-01-31T23:21:42.689Z,101247.78
2023-01-31T23:24:11.049Z,101245.28
2023-01-31T23:26:37.817Z,101237.50
2023-01-31T23:29:04.771Z,101246.25
2023-01-31T23:31:32.535Z,101263.13
2023-01-31T23:34:00.650Z,101264.78
2023-01-31T23:36:27.712Z,101261.34
2023-01-31T23:38:54.619Z,101255.41
2023-01-31T23:41:21.426Z,101261.78
2023-01-31T23:43:48.382Z,101262.13
2023-01-31T23:46:15.011Z,101262.13
2023-01-31T23:48:42.189Z,101265.81
2023-01-31T23:51:09.156Z,101259.25
2023-01-31T23:53:35.990Z,101263.38
2023-01-31T23:56:02.715Z,101275.63
2023-01-31T23:58:29.441Z,101269.56
